Time;durP1;ratioP1;P1;durP2;ratioP2;P2;SDS_P1;SDS_P2;PMS_P1;PMS_P2;Temp;Humidity;BMP_temperature;BMP_pressure;BME280_temperature;BME280_humidity;BME280_pressure;Samples;Min_cycle;Max_cycle;Signal;HPM_P1;HPM_P2
2022/01/04 00:01:07;;;;;;;1999.90;999.90;;;;;;;7.74;100.00;164462.53;5048270;28;20125;-68
2022/01/04 00:03:34;;;;;;;1999.90;999.90;;;;;;;7.72;100.00;164457.00;5062588;28;20424;-68
2022/01/04 00:06:01;;;;;;;1999.90;999.90;;;;;;;7.49;100.00;164393.75;5048505;28;20064;-68
2022/01/04 00:08:27;;;;;;;1999.90;999.90;;;;;;;7.18;100.00;164311.34;5048608;28;20048;-68
2022/01/04 00:11:05;;;;;;;1999.90;999.90;;;;;;;7.07;100.00;164281.09;5047826;28;20110;-68
2022/01/04 00:13:32;;;;;;;1999.90;999.90;;;;;;;7.28;100.00;164338.84;5048854;28;21100;-68
2022/01/04 00:15:59;;;;;;;1999.90;999.90;;;;;;;7.30;100.00;164344.31;5048342;28;20068;-68
2022/01/04 00:18:25;;;;;;;1999.90;999.90;;;;;;;7.37;100.00;164363.56;5046891;28;20041;-68
2022/01/04 00:20:53;;;;;;;1999.90;999.90;;;;;;;7.28;100.00;164338.84;5048165;28;20052;-68
2022/01/04 00:23:20;;;;;;;1999.90;999.90;;;;;;;7.12;100.00;164294.88;5048110;28;20049;-68
2022/01/04 00:25:47;;;;;;;1999.90;999.90;;;;;;;6.88;100.00;164231.66;5047148;28;20053;-69
2022/01/04 00:28:14;;;;;;;1999.90;999.90;;;;;;;7.13;100.00;164299.00;5048240;28;20350;-69
2022/01/04 00:30:41;;;;;;;1999.90;999.90;;;;;;;7.21;100.00;164320.94;5048777;28;20312;-70
2022/01/04 00:33:11;;;;;;;1999.90;999.90;;;;;;;7.46;100.00;164385.53;5046450;28;20442;-69
2022/01/04 00:35:39;;;;;;;1999.90;999.90;;;;;;;7.75;100.00;164465.25;5048089;28;20045;-69
2022/01/04 00:38:06;;;;;;;1999.90;999.90;;;;;;;7.89;100.00;164501.00;5038612;28;20122;-69
2022/01/04 00:40:33;;;;;;;1999.90;999.90;;;;;;;7.72;100.00;164455.66;5047229;28;20521;-70
2022/01/04 00:42:59;;;;;;;1999.90;999.90;;;;;;;7.89;100.00;164501.00;5048042;28;20076;-70
2022/01/04 00:45:31;;;;;;;1999.90;999.90;;;;;;;7.68;100.00;164446.03;5048427;28;20053;-70
2022/01/04 00:50:29;;;;;;;1999.90;999.90;;;;;;;7.56;100.00;164413.03;5051045;28;20037;-69
2022/01/04 00:52:57;;;;;;;1999.90;999.90;;;;;;;7.72;100.00;164457.00;5047280;28;20048;-69
2022/01/04 00:55:25;;;;;;;1999.90;999.90;;;;;;;7.50;100.00;164396.53;5045926;28;20057;-70
2022/01/04 00:57:51;;;;;;;1999.90;999.90;;;;;;;7.53;100.00;164406.19;5046250;28;20130;-69
2022/01/04 01:00:19;;;;;;;1999.90;999.90;;;;;;;7.63;100.00;164432.28;5046276;28;20084;-69
2022/01/04 01:02:46;;;;;;;1999.90;999.90;;;;;;;7.68;100.00;164444.63;5046579;28;20477;-70
2022/01/04 01:05:15;;;;;;;1999.90;999.90;;;;;;;7.46;100.00;164385.53;5047494;28;20327;-70
2022/01/04 01:07:42;;;;;;;1999.90;999.90;;;;;;;7.39;100.00;164369.03;5049212;28;20105;-69
2022/01/04 01:12:40;;;;;;;;;;;;;;;7.53;100.00;164406.19;5047246;28;20072;-69
2022/01/04 01:15:08;;;;;;;1999.90;999.90;;;;;;;7.56;100.00;164414.44;5048074;28;20254;-70
2022/01/04 01:17:35;;;;;;;1999.90;999.90;;;;;;;7.94;100.00;164514.75;5047181;28;20670;-70
2022/01/04 01:20:05;;;;;;;1999.90;999.90;;;;;;;7.91;100.00;164506.53;5047222;28;20118;-70
2022/01/04 01:22:32;;;;;;;1999.90;999.90;;;;;;;8.07;100.00;164549.16;5047960;28;20057;-70
2022/01/04 01:24:58;;;;;;;1999.90;999.90;;;;;;;8.15;100.00;164569.78;5047888;28;20355;-69
2022/01/04 01:27:25;;;;;;;1999.90;999.90;;;;;;;8.25;100.00;164597.28;5047423;28;20060;-69
2022/01/04 01:29:51;;;;;;;1999.90;999.90;;;;;;;7.88;100.00;164499.63;5031400;28;20045;-69
2022/01/04 01:32:18;;;;;;;1999.90;999.90;;;;;;;7.75;100.00;164465.25;5040768;28;20046;-69
2022/01/04 01:34:44;;;;;;;1999.90;999.90;;;;;;;7.94;100.00;164514.75;5047046;28;20163;-69
2022/01/04 01:37:11;;;;;;;1999.90;999.90;;;;;;;8.02;100.00;164536.75;5048392;28;20396;-69
2022/01/04 01:39:37;;;;;;;1999.90;999.90;;;;;;;8.03;100.00;164539.50;5047136;28;20049;-69
2022/01/04 01:42:05;;;;;;;1999.90;999.90;;;;;;;7.84;100.00;164488.63;5047050;28;20076;-69
2022/01/04 01:44:32;;;;;;;1999.90;999.90;;;;;;;7.87;100.00;164496.88;5047675;28;20621;-69
2022/01/04 01:46:59;;;;;;;1999.90;999.90;;;;;;;7.96;100.00;164520.25;5039728;28;20111;-67
2022/01/04 01:49:26;;;;;;;1999.90;999.90;;;;;;;7.81;100.00;164480.38;5048381;28;20049;-68
2022/01/04 01:51:54;;;;;;;1999.90;999.90;;;;;;;7.70;100.00;164450.16;5046836;28;20045;-68
2022/01/04 01:54:20;;;;;;;1999.90;999.90;;;;;;;7.79;100.00;164474.91;5047653;28;20099;-68
2022/01/04 01:56:47;;;;;;;1999.90;999.90;;;;;;;7.80;100.00;164477.66;5046536;28;20087;-68
2022/01/04 01:59:15;;;;;;;1999.90;999.90;;;;;;;7.54;100.00;164408.91;5047632;28;20353;-68
2022/01/04 02:01:41;;;;;;;1999.90;999.90;;;;;;;7.63;100.00;164430.91;5048350;28;20102;-68
2022/01/04 02:04:08;;;;;;;1999.90;999.90;;;;;;;7.32;100.00;164349.78;5046599;28;20055;-68
2022/01/04 02:06:35;;;;;;;1999.90;999.90;;;;;;;7.52;100.00;164402.06;5047665;28;20122;-68
2022/01/04 02:09:03;;;;;;;1999.90;999.90;;;;;;;7.69;100.00;164447.41;5050489;28;20451;-68
2022/01/04 02:11:30;;;;;;;1999.90;999.90;;;;;;;8.01;100.00;164534.03;5049440;28;20398;-68
2022/01/04 02:13:58;;;;;;;1999.90;999.90;;;;;;;7.77;100.00;164469.41;5050698;28;20449;-68
2022/01/04 02:16:26;;;;;;;1999.90;999.90;;;;;;;7.82;100.00;164481.78;5051547;28;20052;-68
2022/01/04 02:18:59;;;;;;;1999.90;999.90;;;;;;;8.07;100.00;164549.16;5049163;28;20044;-68
2022/01/04 02:21:26;;;;;;;1999.90;999.90;;;;;;;8.00;100.00;164531.25;5050485;28;20049;-67
2022/01/04 02:23:52;;;;;;;1999.90;999.90;;;;;;;7.68;100.00;164446.03;5050568;28;20169;-68
2022/01/04 02:26:18;;;;;;;1999.90;999.90;;;;;;;7.71;100.00;164454.28;5047397;28;20104;-67
2022/01/04 02:28:47;;;;;;;1999.90;999.90;;;;;;;7.68;100.00;164446.03;5049504;28;20082;-68
2022/01/04 02:31:13;;;;;;;1999.90;999.90;;;;;;;7.50;100.00;164396.53;5050690;28;20057;-67
2022/01/04 02:33:40;;;;;;;1999.90;999.90;;;;;;;7.68;100.00;164444.63;5048788;28;20488;-67
2022/01/04 02:36:06;;;;;;;1999.90;999.90;;;;;;;7.79;100.00;164474.91;5049356;28;20076;-68
2022/01/04 02:38:33;;;;;;;1999.90;999.90;;;;;;;8.16;100.00;164572.50;5049615;28;20091;-68
2022/01/04 02:41:00;;;;;;;1999.90;999.90;;;;;;;8.07;100.00;164549.16;5049466;28;20037;-68
2022/01/04 02:43:27;;;;;;;1999.90;999.90;;;;;;;8.27;100.00;164602.75;5049939;28;20118;-68
2022/01/04 02:45:53;;;;;;;1999.90;999.90;;;;;;;8.65;100.00;164704.59;5047280;28;20045;-68
2022/01/04 02:48:20;;;;;;;1999.90;999.90;;;;;;;8.93;100.00;164778.84;5050330;28;20111;-68
2022/01/04 02:50:47;;;;;;;1999.90;999.90;;;;;;;8.95;100.00;164784.38;5049396;28;20076;-68
2022/01/04 02:53:13;;;;;;;1999.90;999.90;;;;;;;9.19;100.00;164847.69;5050390;28;20103;-68
2022/01/04 02:55:40;;;;;;;1999.90;999.90;;;;;;;9.12;100.00;164831.13;5050025;28;20315;-68
2022/01/04 02:58:06;;;;;;;1999.90;999.90;;;;;;;8.87;100.00;164762.34;5049838;28;20406;-68
2022/01/04 03:00:33;;;;;;;1999.90;999.90;;;;;;;8.52;100.00;164670.19;5039308;28;20114;-68
2022/01/04 03:03:00;;;;;;;1999.90;999.90;;;;;;;8.46;100.00;164653.69;5050211;28;20053;-68
2022/01/04 03:05:27;;;;;;;1999.90;999.90;;;;;;;8.64;100.00;164701.84;5049042;28;20094;-68
2022/01/04 03:07:53;;;;;;;1999.90;999.90;;;;;;;8.60;100.00;164690.81;5040818;28;20053;-68
2022/01/04 03:10:20;;;;;;;1999.90;999.90;;;;;;;8.86;100.00;164761.00;5041081;28;20446;-68
2022/01/04 03:12:46;;;;;;;1999.90;999.90;;;;;;;9.24;100.00;164862.78;5047821;28;20049;-68
2022/01/04 03:15:14;;;;;;;1999.90;999.90;;;;;;;9.22;100.00;164855.94;5050778;28;20056;-68
2022/01/04 03:17:41;;;;;;;1999.90;999.90;;;;;;;9.15;100.00;164838.03;5044051;28;20048;-68
2022/01/04 03:20:09;;;;;;;1999.90;999.90;;;;;;;8.89;100.00;164769.25;5047724;28;20150;-68
2022/01/04 03:22:35;;;;;;;1999.90;999.90;;;;;;;8.73;100.00;164726.59;5050935;28;20479;-68
2022/01/04 03:25:03;;;;;;;1999.90;999.90;;;;;;;8.74;100.00;164728.00;5049976;28;20500;-68
2022/01/04 03:27:30;;;;;;;1999.90;999.90;;;;;;;8.78;100.00;164738.97;5048673;28;20358;-68
2022/01/04 03:29:57;;;;;;;1999.90;999.90;;;;;;;8.97;100.00;164791.22;5050000;28;20053;-68
2022/01/04 03:32:23;;;;;;;1999.90;999.90;;;;;;;8.92;100.00;164776.13;5048809;28;20107;-68
2022/01/04 03:34:50;;;;;;;1999.90;999.90;;;;;;;8.66;100.00;164707.31;5048560;28;20045;-68
2022/01/04 03:37:16;;;;;;;1999.90;999.90;;;;;;;8.80;100.00;164745.84;5051340;28;20045;-68
2022/01/04 03:39:43;;;;;;;1999.90;999.90;;;;;;;9.07;100.00;164816.03;5041694;28;20099;-68
2022/01/04 03:42:10;;;;;;;1999.90;999.90;;;;;;;8.67;100.00;164708.72;5049084;28;20048;-68
2022/01/04 03:44:36;;;;;;;1999.90;999.90;;;;;;;8.59;100.00;164688.06;5051156;28;20049;-68
2022/01/04 03:47:03;;;;;;;1999.90;999.90;;;;;;;8.12;100.00;164562.88;5050027;28;20071;-68
2022/01/04 03:49:29;;;;;;;1999.90;999.90;;;;;;;8.38;100.00;164633.03;5048845;28;20053;-68
2022/01/04 03:51:57;;;;;;;1999.90;999.90;;;;;;;8.48;100.00;164657.81;5048347;28;20508;-68
2022/01/04 03:54:23;;;;;;;1999.90;999.90;;;;;;;8.49;100.00;164661.94;5049499;28;20049;-68
2022/01/04 03:56:50;;;;;;;1999.90;999.90;;;;;;;8.15;100.00;164571.13;5048297;28;20445;-68
2022/01/04 03:59:17;;;;;;;1999.90;999.90;;;;;;;7.88;100.00;164499.63;5049368;28;20148;-68
2022/01/04 04:01:44;;;;;;;1999.90;999.90;;;;;;;7.82;100.00;164483.13;5050198;28;20179;-68
2022/01/04 04:04:11;;;;;;;1999.90;999.90;;;;;;;7.70;100.00;164451.53;5047633;28;20403;-67
2022/01/04 04:06:38;;;;;;;1999.90;999.90;;;;;;;7.32;100.00;164348.44;5048721;28;20057;-67
2022/01/04 04:09:05;;;;;;;1999.90;999.90;;;;;;;7.42;100.00;164375.94;5048513;28;20049;-67
2022/01/04 04:11:31;;;;;;;1999.90;999.90;;;;;;;7.46;100.00;164385.53;5047821;28;20049;-68
2022/01/04 04:13:58;;;;;;;1999.90;999.90;;;;;;;7.54;100.00;164407.53;5048171;28;20387;-68
2022/01/04 04:16:25;;;;;;;1999.90;999.90;;;;;;;7.60;100.00;164424.03;5048896;28;20087;-67
2022/01/04 04:18:51;;;;;;;1999.90;999.90;;;;;;;7.64;100.00;164435.03;5047693;28;20048;-67
2022/01/04 04:21:18;;;;;;;1999.90;999.90;;;;;;;7.26;100.00;164333.31;5048878;28;20053;-68
2022/01/04 04:23:44;;;;;;;1999.90;999.90;;;;;;;7.54;100.00;164407.53;5049694;28;20400;-67
2022/01/04 04:26:11;;;;;;;1999.90;999.90;;;;;;;7.64;100.00;164435.03;5045963;28;20475;-68
2022/01/04 04:28:37;;;;;;;1999.90;999.90;;;;;;;7.59;100.00;164421.25;5048299;28;20049;-68
2022/01/04 04:31:05;;;;;;;1999.90;999.90;;;;;;;7.98;100.00;164525.78;5048578;28;20087;-68
2022/01/04 04:33:32;;;;;;;1999.90;999.90;;;;;;;7.96;100.00;164520.25;5047049;28;20357;-67
2022/01/04 04:35:59;;;;;;;1999.90;999.90;;;;;;;7.67;100.00;164443.28;5048346;28;20466;-67
2022/01/04 04:38:26;;;;;;;1999.90;999.90;;;;;;;7.60;100.00;164422.66;5050117;28;20061;-67
2022/01/04 04:40:52;;;;;;;1999.90;999.90;;;;;;;7.71;100.00;164454.28;5047882;28;20077;-67
2022/01/04 04:43:19;;;;;;;1999.90;999.90;;;;;;;7.79;100.00;164474.91;5050642;28;20148;-68
2022/01/04 04:45:45;;;;;;;1999.90;999.90;;;;;;;7.54;100.00;164407.53;5046987;28;20075;-67
2022/01/04 04:48:12;;;;;;;1999.90;999.90;;;;;;;7.35;100.00;164356.69;5052102;28;20056;-67
2022/01/04 04:50:39;;;;;;;1999.90;999.90;;;;;;;7.35;100.00;164358.09;5048836;28;20102;-67
2022/01/04 04:53:06;;;;;;;1999.90;999.90;;;;;;;7.30;100.00;164344.31;5056524;28;20045;-67
2022/01/04 04:55:32;;;;;;;1999.90;999.90;;;;;;;7.60;100.00;164424.03;5048236;28;20437;-68
2022/01/04 04:57:59;;;;;;;1999.90;999.90;;;;;;;7.62;100.00;164429.50;5051119;28;20307;-67
2022/01/04 05:00:26;;;;;;;1999.90;999.90;;;;;;;7.63;100.00;164432.28;5050083;28;20052;-67
2022/01/04 05:02:52;;;;;;;1999.90;999.90;;;;;;;7.55;100.00;164411.66;5045413;28;20087;-67
2022/01/04 05:05:19;;;;;;;1999.90;999.90;;;;;;;7.33;100.00;164351.19;5047671;28;20057;-67
2022/01/04 05:07:46;;;;;;;1999.90;999.90;;;;;;;7.71;100.00;164452.88;5048617;28;20134;-68
2022/01/04 05:10:12;;;;;;;1999.90;999.90;;;;;;;7.30;100.00;164344.31;5046468;28;20048;-68
2022/01/04 05:12:39;;;;;;;1999.90;999.90;;;;;;;7.42;100.00;164374.56;5045962;28;20138;-68
2022/01/04 05:15:06;;;;;;;1999.90;999.90;;;;;;;7.42;100.00;164374.56;5046336;28;20426;-67
2022/01/04 05:17:32;;;;;;;1999.90;999.90;;;;;;;7.49;100.00;164393.75;5043290;28;20115;-67
2022/01/04 05:19:59;;;;;;;1999.90;999.90;;;;;;;7.69;100.00;164447.41;5050659;28;20519;-67
2022/01/04 05:22:25;;;;;;;1999.90;999.90;;;;;;;7.63;100.00;164430.91;5049785;28;20057;-68
2022/01/04 05:24:52;;;;;;;1999.90;999.90;;;;;;;7.94;100.00;164514.75;5045748;28;20056;-68
2022/01/04 05:27:19;;;;;;;1999.90;999.90;;;;;;;7.79;100.00;164473.53;5045980;28;20072;-68
2022/01/04 05:29:45;;;;;;;1999.90;999.90;;;;;;;7.50;100.00;164397.94;5047232;28;20044;-68
2022/01/04 05:32:12;;;;;;;1999.90;999.90;;;;;;;7.42;100.00;164374.56;5041559;28;20322;-68
2022/01/04 05:34:38;;;;;;;1999.90;999.90;;;;;;;7.57;100.00;164415.78;5045724;28;21377;-68
2022/01/04 05:37:05;;;;;;;1999.90;999.90;;;;;;;7.72;100.00;164457.00;5046710;28;20311;-68
2022/01/04 05:39:31;;;;;;;1999.90;999.90;;;;;;;7.50;100.00;164396.53;5044461;28;20073;-68
2022/01/04 05:41:58;;;;;;;1999.90;999.90;;;;;;;7.96;100.00;164520.25;5051247;28;20130;-68
2022/01/04 05:44:25;;;;;;;1999.90;999.90;;;;;;;7.91;100.00;164506.53;5049969;28;20404;-68
2022/01/04 05:46:51;;;;;;;1999.90;999.90;;;;;;;7.74;100.00;164461.13;5049079;28;20430;-68
2022/01/04 05:49:18;;;;;;;1999.90;999.90;;;;;;;8.19;100.00;164580.78;5051673;28;20468;-68
2022/01/04 05:51:45;;;;;;;1999.90;999.90;;;;;;;7.83;100.00;164484.50;5041114;28;20109;-68
2022/01/04 05:54:11;;;;;;;1999.90;999.90;;;;;;;8.00;100.00;164529.91;5049181;28;20434;-68
2022/01/04 05:56:38;;;;;;;1999.90;999.90;;;;;;;8.14;100.00;164567.00;5051701;28;20076;-68
2022/01/04 05:59:04;;;;;;;1999.90;999.90;;;;;;;7.67;100.00;164441.91;5050674;28;20076;-68
2022/01/04 06:01:31;;;;;;;1999.90;999.90;;;;;;;7.32;100.00;164349.78;5049142;28;20214;-68
2022/01/04 06:03:57;;;;;;;1999.90;999.90;;;;;;;7.54;100.00;164408.91;5050778;28;20052;-68
2022/01/04 06:06:24;;;;;;;1999.90;999.90;;;;;;;7.58;100.00;164418.56;5047251;28;20049;-68
2022/01/04 06:08:51;;;;;;;1999.90;999.90;;;;;;;7.32;100.00;164349.78;5048862;28;20107;-68
2022/01/04 06:17:06;;;;;;;1999.90;999.90;;;;;;;7.73;100.00;164458.41;5050493;28;20102;-68
2022/01/04 06:19:33;;;;;;;1999.90;999.90;;;;;;;7.71;100.00;164454.28;5048980;28;20083;-69
2022/01/04 06:22:00;;;;;;;1999.90;999.90;;;;;;;7.51;100.00;164399.31;5052416;28;20457;-69
2022/01/04 06:24:27;;;;;;;1999.90;999.90;;;;;;;7.81;100.00;164479.03;5043308;28;20071;-69
2022/01/04 06:26:54;;;;;;;1999.90;999.90;;;;;;;8.01;100.00;164534.03;5047506;28;20103;-69
2022/01/04 06:29:22;;;;;;;1999.90;999.90;;;;;;;7.86;100.00;164494.16;5050345;28;20079;-69
2022/01/04 06:31:49;;;;;;;1999.90;999.90;;;;;;;7.96;100.00;164520.25;5050108;28;20418;-69
2022/01/04 06:34:16;;;;;;;1999.90;999.90;;;;;;;7.94;100.00;164516.13;5049351;28;20041;-69
2022/01/04 06:36:42;;;;;;;1999.90;999.90;;;;;;;8.03;100.00;164538.16;5050647;28;20080;-68
2022/01/04 06:39:09;;;;;;;1999.90;999.90;;;;;;;8.34;100.00;164622.00;5050590;28;20442;-68
2022/01/04 06:41:35;;;;;;;1999.90;999.90;;;;;;;8.85;100.00;164756.88;5050504;28;20076;-68
2022/01/04 06:44:02;;;;;;;1999.90;999.90;;;;;;;9.05;100.00;164810.50;5050345;28;20442;-68
2022/01/04 06:46:29;;;;;;;1999.90;999.90;;;;;;;9.06;100.00;164814.63;5051211;28;20088;-69
2022/01/04 06:48:55;;;;;;;1999.90;999.90;;;;;;;8.84;100.00;164755.47;5047876;28;20049;-69
2022/01/04 06:51:22;;;;;;;1999.90;999.90;;;;;;;8.59;100.00;164688.06;5050390;28;20110;-68
2022/01/04 06:53:48;;;;;;;1999.90;999.90;;;;;;;7.96;100.00;164518.88;5050377;28;20104;-68
2022/01/04 06:56:15;;;;;;;1999.90;999.90;;;;;;;7.70;100.00;164450.16;5048774;28;20048;-68
2022/01/04 06:58:42;;;;;;;1999.90;999.90;;;;;;;8.02;100.00;164536.75;5050259;28;20045;-68
2022/01/04 07:01:08;;;;;;;1999.90;999.90;;;;;;;8.28;100.00;164605.53;5051307;28;20464;-68
2022/01/04 07:03:35;;;;;;;1999.90;999.90;;;;;;;8.01;100.00;164534.03;5049049;28;20072;-68
2022/01/04 07:06:02;;;;;;;1999.90;999.90;;;;;;;8.24;100.00;164594.50;5048859;28;20053;-68
2022/01/04 07:08:28;;;;;;;1999.90;999.90;;;;;;;8.44;100.00;164648.16;5050481;28;20080;-68
2022/01/04 07:10:55;;;;;;;1999.90;999.90;;;;;;;8.56;100.00;164681.22;5048572;28;20061;-68
2022/01/04 07:13:21;;;;;;;1999.90;999.90;;;;;;;8.18;100.00;164578.03;5049871;28;20399;-68
2022/01/04 07:15:48;;;;;;;1999.90;999.90;;;;;;;8.04;100.00;164542.28;5051205;28;20133;-68
2022/01/04 07:18:14;;;;;;;1999.90;999.90;;;;;;;8.15;100.00;164571.13;5048588;28;20053;-69
2022/01/04 07:20:41;;;;;;;1999.90;999.90;;;;;;;8.61;100.00;164693.59;5050463;28;20057;-68
2022/01/04 07:23:08;;;;;;;1999.90;999.90;;;;;;;8.43;100.00;164645.41;5010094;28;20042;-68
2022/01/04 07:25:34;;;;;;;1999.90;999.90;;;;;;;8.22;100.00;164589.03;5008531;28;20058;-68
2022/01/04 07:28:01;;;;;;;1999.90;999.90;;;;;;;8.23;100.00;164593.16;5009219;28;20081;-68
2022/01/04 07:30:27;;;;;;;1999.90;999.90;;;;;;;8.49;100.00;164660.59;5009462;28;20276;-68
2022/01/04 07:32:54;;;;;;;1999.90;999.90;;;;;;;8.65;100.00;164704.59;5008494;28;20410;-68
2022/01/04 07:35:20;;;;;;;1999.90;999.90;;;;;;;8.61;100.00;164693.59;5008998;28;20298;-68
2022/01/04 07:37:47;;;;;;;1999.90;999.90;;;;;;;8.64;100.00;164701.84;5017799;28;20457;-68
2022/01/04 07:40:14;;;;;;;1999.90;999.90;;;;;;;8.47;100.00;164656.47;5008105;28;20104;-68
2022/01/04 07:42:40;;;;;;;1999.90;999.90;;;;;;;8.33;100.00;164617.91;5008449;28;20084;-68
2022/01/04 07:45:07;;;;;;;1999.90;999.90;;;;;;;8.65;100.00;164704.59;5008809;28;20104;-68
2022/01/04 07:47:34;;;;;;;1999.90;999.90;;;;;;;8.62;100.00;164696.34;5008697;28;20145;-68
2022/01/04 07:50:01;;;;;;;1999.90;999.90;;;;;;;8.84;100.00;164755.47;5008059;28;20042;-68
2022/01/04 07:52:27;;;;;;;1999.90;999.90;;;;;;;8.37;100.00;164630.25;5009505;28;20375;-68
2022/01/04 07:54:54;;;;;;;1999.90;999.90;;;;;;;8.69;100.00;164715.56;5008350;28;20160;-68
2022/01/04 07:57:20;;;;;;;1999.90;999.90;;;;;;;8.42;100.00;164644.00;5008219;28;20428;-68
2022/01/04 07:59:47;;;;;;;1999.90;999.90;;;;;;;8.61;100.00;164693.59;5008555;28;20049;-68
2022/01/04 08:02:13;;;;;;;1999.90;999.90;;;;;;;8.32;100.00;164615.13;5007471;28;20514;-68
2022/01/04 08:04:40;;;;;;;1999.90;999.90;;;;;;;8.42;100.00;164642.63;5022735;28;20042;-68
2022/01/04 08:07:06;;;;;;;1999.90;999.90;;;;;;;8.70;100.00;164718.34;5009028;28;20069;-68
2022/01/04 08:09:33;;;;;;;1999.90;999.90;;;;;;;8.64;100.00;164703.19;5007603;28;20050;-68
2022/01/04 08:12:00;;;;;;;1999.90;999.90;;;;;;;8.43;100.00;164645.41;5008037;28;20073;-68
2022/01/04 08:14:27;;;;;;;1999.90;999.90;;;;;;;8.20;100.00;164584.91;5008871;28;20080;-67
2022/01/04 08:16:53;;;;;;;1999.90;999.90;;;;;;;8.68;100.00;164711.44;5007884;28;20410;-68
2022/01/04 08:19:20;;;;;;;1999.90;999.90;;;;;;;8.56;100.00;164679.81;5007308;28;20060;-68
2022/01/04 08:21:47;;;;;;;1999.90;999.90;;;;;;;8.56;100.00;164679.81;5027976;28;20265;-68
2022/01/04 08:24:14;;;;;;;1999.90;999.90;;;;;;;8.68;100.00;164712.84;5047037;28;20358;-67
2022/01/04 08:26:40;;;;;;;1999.90;999.90;;;;;;;8.60;100.00;164690.81;5046823;28;20049;-68
2022/01/04 08:29:07;;;;;;;1999.90;999.90;;;;;;;8.62;100.00;164696.34;5062105;28;20645;-67
2022/01/04 08:31:34;;;;;;;1999.90;999.90;;;;;;;8.66;100.00;164707.31;5047533;28;20041;-67
2022/01/04 08:34:00;;;;;;;1999.90;999.90;;;;;;;9.16;100.00;164840.78;5046928;28;20444;-67
2022/01/04 08:36:28;;;;;;;1999.90;999.90;;;;;;;8.90;100.00;164770.59;5047242;28;20075;-67
2022/01/04 08:38:57;;;;;;;1999.90;999.90;;;;;;;9.07;100.00;164817.38;5047436;28;20080;-68
2022/01/04 08:41:23;;;;;;;1999.90;999.90;;;;;;;9.03;100.00;164806.38;5046910;28;20083;-68
2022/01/04 08:43:50;;;;;;;1999.90;999.90;;;;;;;9.20;100.00;164850.41;5048220;28;20049;-68
2022/01/04 08:46:17;;;;;;;1999.90;999.90;;;;;;;8.94;100.00;164782.97;5048648;28;20057;-68
2022/01/04 08:48:43;;;;;;;1999.90;999.90;;;;;;;9.05;100.00;164811.91;5042624;28;20141;-67
2022/01/04 08:51:10;;;;;;;1999.90;999.90;;;;;;;9.06;100.00;164813.25;5047766;28;20502;-67
2022/01/04 08:53:37;;;;;;;1999.90;999.90;;;;;;;9.19;100.00;164847.69;5046912;28;20453;-68
2022/01/04 08:56:04;;;;;;;1999.90;999.90;;;;;;;9.15;100.00;164839.44;5044875;28;20076;-68
2022/01/04 08:58:30;;;;;;;1999.90;999.90;;;;;;;9.34;100.00;164888.94;5048470;28;20086;-68
2022/01/04 09:00:57;;;;;;;1999.90;999.90;;;;;;;9.56;100.00;164946.72;5048810;28;20064;-68
2022/01/04 09:03:24;;;;;;;1999.90;999.90;;;;;;;9.34;100.00;164888.94;5047851;28;20130;-68
2022/01/04 09:05:51;;;;;;;1999.90;999.90;;;;;;;9.12;100.00;164831.13;5048151;28;20051;-68
2022/01/04 09:08:18;;;;;;;1999.90;999.90;;;;;;;9.21;100.00;164853.16;5046890;28;20704;-68
2022/01/04 09:10:44;;;;;;;1999.90;999.90;;;;;;;9.27;100.00;164871.03;5043973;28;20072;-68
2022/01/04 09:13:16;;;;;;;1999.90;999.90;;;;;;;8.85;100.00;164756.88;5048118;28;20069;-68
2022/01/04 09:21:18;;;;;;;1999.90;999.90;;;;;;;8.71;100.00;164719.69;5051782;28;20049;-67
2022/01/04 09:23:47;;;;;;;1999.90;999.90;;;;;;;9.00;100.00;164798.13;5042878;28;20390;-68
2022/01/04 09:26:15;;;;;;;1999.90;999.90;;;;;;;9.16;100.00;164842.16;5042803;28;20079;-68
2022/01/04 09:28:43;;;;;;;1999.90;999.90;;;;;;;9.19;100.00;164847.69;5051140;28;20095;-68
2022/01/04 09:31:10;;;;;;;1999.90;999.90;;;;;;;9.44;100.00;164915.09;5051432;28;20130;-68
2022/01/04 09:33:37;;;;;;;1999.90;999.90;;;;;;;9.09;100.00;164821.50;5052112;28;20175;-68
2022/01/04 09:36:23;;;;;;;1999.90;999.90;;;;;;;9.17;100.00;164843.56;5050303;28;20403;-68
2022/01/04 09:38:52;;;;;;;1999.90;999.90;;;;;;;9.11;100.00;164827.00;5052512;28;20045;-68
2022/01/04 09:41:18;;;;;;;1999.90;999.90;;;;;;;8.79;100.00;164743.09;5052352;28;20056;-67
2022/01/04 09:43:46;;;;;;;1999.90;999.90;;;;;;;9.09;100.00;164822.88;5049593;28;20045;-68
2022/01/04 09:46:13;;;;;;;1999.90;999.90;;;;;;;9.20;100.00;164850.41;5051162;28;20045;-68
2022/01/04 09:48:39;;;;;;;1999.90;999.90;;;;;;;8.73;100.00;164725.22;5039472;28;20045;-67
2022/01/04 09:51:10;;;;;;;1999.90;999.90;;;;;;;9.02;100.00;164802.25;5051296;28;20049;-68
2022/01/04 09:53:36;;;;;;;1999.90;999.90;;;;;;;8.65;100.00;164704.59;5051146;28;20118;-68
2022/01/04 09:56:03;;;;;;;1999.90;999.90;;;;;;;8.60;100.00;164692.22;5042105;28;20045;-67
2022/01/04 09:58:30;;;;;;;1999.90;999.90;;;;;;;8.59;100.00;164688.06;5050348;28;20097;-67
2022/01/04 10:00:57;;;;;;;1999.90;999.90;;;;;;;8.54;100.00;164674.31;5050496;28;20306;-67
2022/01/04 10:03:29;;;;;;;1999.90;999.90;;;;;;;8.54;100.00;164674.31;5047438;28;20044;-68
2022/01/04 10:06:07;;;;;;;1999.90;999.90;;;;;;;8.95;100.00;164785.75;5050087;28;20079;-68
2022/01/04 10:08:55;;;;;;;1999.90;999.90;;;;;;;8.64;100.00;164701.84;5049780;28;20314;-68
2022/01/04 10:11:36;;;;;;;1999.90;999.90;;;;;;;8.64;100.00;164703.19;5045680;28;20053;-68
2022/01/04 10:14:33;;;;;;;1999.90;999.90;;;;;;;8.53;100.00;164671.56;5050943;28;20092;-67
2022/01/04 10:17:06;;;;;;;1999.90;999.90;;;;;;;8.67;100.00;164708.72;5050108;28;20056;-68
2022/01/04 10:19:36;;;;;;;1999.90;999.90;;;;;;;8.72;100.00;164722.47;5048963;28;20402;-68
2022/01/04 10:22:13;;;;;;;1999.90;999.90;;;;;;;8.76;100.00;164734.84;5050110;28;20438;-68
2022/01/04 10:24:41;;;;;;;1999.90;999.90;;;;;;;8.70;100.00;164716.97;5050449;28;20079;-67
2022/01/04 10:27:28;;;;;;;1999.90;999.90;;;;;;;8.58;100.00;164686.69;5047974;28;20053;-68
2022/01/04 10:30:16;;;;;;;1999.90;999.90;;;;;;;8.52;100.00;164668.84;5049288;28;20506;-67
2022/01/04 10:32:53;;;;;;;1999.90;999.90;;;;;;;8.46;100.00;164655.06;5048243;28;20041;-67
2022/01/04 10:35:41;;;;;;;1999.90;999.90;;;;;;;8.58;100.00;164685.34;5049790;28;20053;-67
2022/01/04 10:38:20;;;;;;;1999.90;999.90;;;;;;;8.37;100.00;164630.25;5048855;28;20056;-67
2022/01/04 10:40:49;;;;;;;1999.90;999.90;;;;;;;8.67;100.00;164710.09;5050256;28;20424;-68
2022/01/04 10:43:21;;;;;;;1999.90;999.90;;;;;;;8.78;100.00;164740.38;5050501;28;20080;-67
2022/01/04 10:45:50;;;;;;;1999.90;999.90;;;;;;;8.85;100.00;164756.88;5048858;28;20094;-67
2022/01/04 10:48:26;;;;;;;1999.90;999.90;;;;;;;8.58;100.00;164685.34;5049222;28;20087;-68
2022/01/04 10:51:18;;;;;;;1999.90;999.90;;;;;;;8.58;100.00;164686.69;5045852;28;20115;-67
2022/01/04 10:53:46;;;;;;;1999.90;999.90;;;;;;;8.69;100.00;164715.56;5051261;28;20431;-67
2022/01/04 10:56:32;;;;;;;1999.90;999.90;;;;;;;8.60;100.00;164690.81;5047089;28;20080;-67
2022/01/04 10:59:02;;;;;;;1999.90;999.90;;;;;;;8.54;100.00;164674.31;5049154;28;20104;-68
2022/01/04 11:01:39;;;;;;;1999.90;999.90;;;;;;;8.51;100.00;164666.06;5050284;28;20132;-67
2022/01/04 11:04:12;;;;;;;1999.90;999.90;;;;;;;8.61;100.00;164694.94;5049432;28;20072;-67
2022/01/04 11:06:39;;;;;;;1999.90;999.90;;;;;;;8.78;100.00;164740.38;5049393;28;20111;-67